Time;durP1;ratioP1;P1;durP2;ratioP2;P2;SDS_P1;SDS_P2;PMS_P1;PMS_P2;Temp;Humidity;BMP_temperature;BMP_pressure;BME280_temperature;BME280_humidity;BME280_pressure;Samples;Min_cycle;Max_cycle;Signal;HPM_P1;HPM_P2
2023/04/13 00:02:21;;;;;;;6.75;2.65;;;;;;;;;;5093064;28;20051;-55
2023/04/13 00:04:49;;;;;;;4.93;2.22;;;;;;;;;;5094926;27;20043;-55
2023/04/13 00:07:21;;;;;;;4.65;2.00;;;5.20;99.90;;;;;;5096132;27;20134;-55
2023/04/13 00:09:49;;;;;;;5.22;2.65;;;5.50;99.90;;;;;;5097193;27;20075;-55
2023/04/13 00:12:16;;;;;;;7.53;2.60;;;;;;;;;;5096280;27;20055;-55
2023/04/13 00:14:42;;;;;;;7.85;3.13;;;;;;;;;;5096903;27;20043;-54
2023/04/13 00:17:09;;;;;;;7.30;2.67;;;;;;;;;;5097236;27;20176;-55
2023/04/13 00:19:35;;;;;;;7.28;2.88;;;;;;;;;;5095633;28;20540;-54
2023/04/13 00:22:03;;;;;;;7.28;2.72;;;5.80;99.90;;;;;;5097025;27;20047;-55
2023/04/13 00:24:29;;;;;;;5.93;2.90;;;;;;;;;;5095145;27;20412;-54
2023/04/13 00:26:55;;;;;;;5.88;2.70;;;;;;;;;;5096746;27;20051;-53
2023/04/13 00:29:22;;;;;;;8.73;3.80;;;;;;;;;;5098085;27;20040;-55
2023/04/13 00:31:48;;;;;;;6.03;2.80;;;;;;;;;;5095589;27;20075;-55
2023/04/13 00:34:14;;;;;;;7.40;3.00;;;;;;;;;;5095451;27;20530;-55
2023/04/13 00:36:41;;;;;;;5.65;3.03;;;;;;;;;;5096073;27;20044;-54
2023/04/13 00:39:07;;;;;;;4.88;2.47;;;;;;;;;;5095466;27;21643;-54
2023/04/13 00:41:33;;;;;;;7.80;2.85;;;5.90;99.90;;;;;;5077802;28;20715;-55
2023/04/13 00:43:59;;;;;;;6.68;2.97;;;;;;;;;;5095444;28;20040;-55
2023/04/13 00:46:26;;;;;;;5.55;2.35;;;;;;;;;;5095697;27;20088;-55
2023/04/13 00:48:54;;;;;;;6.93;2.72;;;;;;;;;;5096530;27;20625;-56
2023/04/13 00:51:20;;;;;;;8.50;3.15;;;5.80;99.90;;;;;;5096325;27;20126;-56
2023/04/13 00:53:48;;;;;;;6.25;2.35;;;;;;;;;;5095960;27;20048;-56
2023/04/13 00:56:14;;;;;;;6.63;2.40;;;5.90;99.90;;;;;;5095955;27;20063;-56
2023/04/13 00:58:41;;;;;;;5.35;2.65;;;;;;;;;;5096703;27;20150;-55
2023/04/13 01:01:07;;;;;;;7.28;2.20;;;5.80;99.90;;;;;;5097177;27;20119;-52
2023/04/13 01:03:32;;;;;;;5.63;2.20;;;5.70;99.90;;;;;;5094885;27;20043;-53
2023/04/13 01:06:04;;;;;;;5.20;2.13;;;5.70;99.90;;;;;;5076360;28;20046;-53
2023/04/13 01:08:46;;;;;;;4.47;2.50;;;5.80;99.90;;;;;;5094844;27;20047;-54
2023/04/13 01:11:18;;;;;;;;;;;7.30;99.90;;;;;;5096492;27;20077;-53
2023/04/13 01:14:22;;;;;;;5.97;2.42;;;5.50;99.90;;;;;;5095138;27;19928;-55
2023/04/13 01:16:56;;;;;;;5.53;2.65;;;5.50;99.90;;;;;;5095595;27;20040;-55
2023/04/13 01:19:33;;;;;;;4.78;2.30;;;5.60;99.90;;;;;;5095399;27;20035;-51
2023/04/13 01:22:01;;;;;;;5.75;2.40;;;5.30;99.90;;;;;;5095750;27;20488;-53
2023/04/13 01:24:48;;;;;;;4.82;2.38;;;5.50;99.90;;;;;;5095276;27;20043;-51
2023/04/13 01:27:19;;;;;;;5.15;2.15;;;5.60;99.90;;;;;;5095633;27;20503;-53
2023/04/13 01:29:47;;;;;;;5.05;2.67;;;5.40;99.90;;;;;;5097739;27;20051;-55
2023/04/13 01:32:15;;;;;;;6.45;2.67;;;5.40;99.90;;;;;;5096325;27;20096;-54
2023/04/13 01:34:41;;;;;;;5.68;2.28;;;;;;;;;;5096030;27;20051;-51
2023/04/13 01:37:08;;;;;;;4.53;1.83;;;5.50;99.90;;;;;;5096142;27;20099;-53
2023/04/13 01:39:37;;;;;;;7.10;2.90;;;6.00;99.90;;;;;;5095442;27;20445;-54
2023/04/13 01:42:03;;;;;;;5.07;2.05;;;;;;;;;;5094406;27;20063;-55
2023/04/13 01:44:32;;;;;;;7.93;2.75;;;5.50;99.90;;;;;;5096096;27;20381;-55
2023/04/13 01:47:14;;;;;;;6.10;2.28;;;5.40;99.90;;;;;;5094989;27;20524;-55
2023/04/13 01:49:45;;;;;;;6.53;2.17;;;5.40;99.90;;;;;;5075184;28;20058;-55
2023/04/13 01:52:13;;;;;;;6.37;2.60;;;5.50;99.90;;;;;;5094226;27;20531;-56
2023/04/13 01:54:40;;;;;;;12.75;2.65;;;4.80;99.90;;;;;;5095348;27;20300;-55
2023/04/13 01:57:07;;;;;;;8.73;3.38;;;;;;;;;;5096507;27;20575;-56
2023/04/13 01:59:33;;;;;;;7.80;2.47;;;;;;;;;;5078075;28;20218;-56
2023/04/13 02:01:59;;;;;;;6.82;2.78;;;;;;;;;;5094854;27;20042;-55
2023/04/13 02:04:25;;;;;;;6.15;2.40;;;;;;;;;;5093981;27;20389;-55
2023/04/13 02:06:52;;;;;;;6.97;2.75;;;5.50;99.90;;;;;;5094275;27;20047;-56
2023/04/13 02:09:18;;;;;;;8.63;2.80;;;;;;;;;;5093921;27;20907;-56
2023/04/13 02:11:44;;;;;;;6.15;2.85;;;;;;;;;;5094081;27;20361;-56
2023/04/13 02:14:10;;;;;;;7.32;2.50;;;;;;;;;;5094541;27;20086;-55
2023/04/13 02:16:37;;;;;;;5.75;2.80;;;;;;;;;;5095162;27;20036;-56
2023/04/13 02:19:03;;;;;;;5.75;2.38;;;;;;;;;;5075074;28;20530;-56
2023/04/13 02:21:29;;;;;;;5.22;2.42;;;5.50;99.90;;;;;;5093743;27;20126;-55
2023/04/13 02:23:55;;;;;;;7.18;2.50;;;;;;;;;;5092916;27;20122;-53
2023/04/13 02:26:21;;;;;;;6.25;2.65;;;;;;;;;;5094947;27;20047;-56
2023/04/13 02:28:48;;;;;;;6.65;2.60;;;5.40;99.90;;;;;;5093705;27;20223;-56
2023/04/13 02:31:15;;;;;;;7.72;3.13;;;;;;;;;;5093871;27;20055;-55
2023/04/13 02:33:43;;;;;;;7.03;2.47;;;5.40;99.90;;;;;;5073868;28;20055;-55
2023/04/13 02:36:09;;;;;;;6.30;2.50;;;5.60;99.90;;;;;;5076273;28;20071;-55
2023/04/13 02:38:38;;;;;;;9.15;2.72;;;;;;;;;;5094811;27;20048;-56
2023/04/13 02:41:05;;;;;;;6.95;2.50;;;;;;;;;;5094335;28;20043;-56
2023/04/13 02:43:32;;;;;;;6.28;2.60;;;5.40;99.90;;;;;;5094048;27;20040;-56
2023/04/13 02:45:58;;;;;;;7.85;2.50;;;5.50;99.90;;;;;;5094612;27;20040;-55
2023/04/13 02:48:25;;;;;;;8.93;2.40;;;5.50;99.90;;;;;;5094512;27;20055;-56
2023/04/13 02:50:51;;;;;;;6.95;2.42;;;;;;;;;;5094835;27;20087;-56
2023/04/13 02:53:17;;;;;;;6.38;3.35;;;5.50;99.90;;;;;;5075487;27;20043;-56
2023/04/13 02:55:43;;;;;;;5.78;2.35;;;;;;;;;;5094047;28;20050;-56
2023/04/13 02:58:10;;;;;;;4.35;1.90;;;5.60;99.90;;;;;;5094760;27;20047;-56
2023/04/13 03:00:37;;;;;;;9.05;2.22;;;;;;;;;;5095831;27;20059;-56
2023/04/13 03:03:03;;;;;;;8.57;2.33;;;5.60;99.90;;;;;;5094498;27;20052;-56
2023/04/13 03:05:32;;;;;;;4.95;1.85;;;;;;;;;;5093985;27;20044;-56
2023/04/13 03:07:58;;;;;;;3.75;1.95;;;;;;;;;;5094000;27;20381;-57
2023/04/13 03:10:25;;;;;;;4.85;2.17;;;;;;;;;;5094512;27;20040;-56
2023/04/13 03:12:52;;;;;;;9.55;2.25;;;;;;;;;;5092935;27;20430;-56
2023/04/13 03:15:18;;;;;;;3.72;1.75;;;5.80;99.90;;;;;;5092527;28;20047;-56
2023/04/13 03:17:44;;;;;;;6.18;2.10;;;;;;;;;;5093040;27;20567;-56
2023/04/13 03:20:12;;;;;;;5.25;2.63;;;5.50;99.90;;;;;;5092615;28;20688;-56
2023/04/13 03:22:38;;;;;;;5.18;2.10;;;;;;;;;;5093731;27;20571;-56
2023/04/13 03:25:05;;;;;;;4.22;1.77;;;5.50;99.90;;;;;;5092740;28;20051;-56
2023/04/13 03:27:31;;;;;;;4.22;1.90;;;;;;;;;;5092821;27;20953;-57
2023/04/13 03:29:57;;;;;;;8.10;3.15;;;5.60;99.90;;;;;;5094116;27;20042;-56
2023/04/13 03:32:23;;;;;;;4.75;1.98;;;5.60;99.90;;;;;;5093982;27;21169;-57
2023/04/13 03:34:49;;;;;;;5.75;2.20;;;;;;;;;;5074710;28;20384;-56
2023/04/13 03:37:18;;;;;;;4.15;2.22;;;;;;;;;;5092963;28;20054;-56
2023/04/13 03:39:44;;;;;;;4.93;2.30;;;5.80;99.90;;;;;;5074235;28;20737;-56
2023/04/13 03:42:10;;;;;;;6.30;2.30;;;;;;;;;;5093522;28;20036;-57
2023/04/13 03:44:36;;;;;;;5.90;2.38;;;5.70;99.90;;;;;;5094182;27;20043;-56
2023/04/13 03:47:02;;;;;;;5.22;2.33;;;;;;;;;;5074320;28;20039;-56
2023/04/13 03:49:29;;;;;;;5.78;1.98;;;;;;;;;;5073253;28;20050;-56
2023/04/13 03:51:56;;;;;;;5.18;2.30;;;6.00;99.90;;;;;;5074551;28;20091;-55
2023/04/13 03:54:21;;;;;;;5.70;2.22;;;5.60;99.90;;;;;;5094713;28;20651;-56
2023/04/13 03:56:47;;;;;;;7.78;2.10;;;5.80;99.90;;;;;;5074573;28;20116;-56
2023/04/13 03:59:13;;;;;;;4.80;2.25;;;;;;;;;;5093902;28;20036;-56
2023/04/13 04:01:39;;;;;;;4.03;1.80;;;;;;;;;;5074916;28;20047;-56
2023/04/13 04:04:05;;;;;;;3.17;1.88;;;;;;;;;;5075317;28;20271;-57
2023/04/13 04:06:31;;;;;;;4.65;2.03;;;5.70;99.90;;;;;;5094575;28;20050;-57
2023/04/13 04:08:57;;;;;;;3.70;1.90;;;5.70;99.90;;;;;;5093619;28;20035;-58
2023/04/13 04:11:23;;;;;;;4.53;2.20;;;;;;;;;;5094205;28;20135;-57
2023/04/13 04:13:49;;;;;;;4.63;2.22;;;;;;;;;;5093757;28;20399;-57
2023/04/13 04:16:16;;;;;;;4.63;2.20;;;;;;;;;;5093740;28;20063;-57
2023/04/13 04:18:42;;;;;;;6.97;2.45;;;;;;;;;;5094264;28;20079;-57
2023/04/13 04:21:10;;;;;;;6.05;2.30;;;;;;;;;;5094863;28;20040;-57
2023/04/13 04:23:38;;;;;;;4.10;2.00;;;;;;;;;;5093859;28;20461;-56
2023/04/13 04:26:05;;;;;;;6.28;2.13;;;5.60;99.90;;;;;;5094227;28;20051;-57
2023/04/13 04:28:37;;;;;;;5.55;2.30;;;;;;;;;;5093017;28;20104;-56
2023/04/13 04:31:09;;;;;;;3.95;2.15;;;5.30;99.90;;;;;;5094275;28;20035;-56
2023/04/13 04:33:38;;;;;;;6.97;2.58;;;;;;;;;;5092754;28;20140;-57
2023/04/13 04:36:08;;;;;;;4.50;2.25;;;5.30;99.90;;;;;;5093840;28;20028;-57
2023/04/13 04:38:34;;;;;;;6.53;2.60;;;;;;;;;;5093140;28;20854;-57
2023/04/13 04:41:01;;;;;;;5.22;2.58;;;;;;;;;;5092450;28;20974;-56
2023/04/13 04:43:29;;;;;;;4.93;2.25;;;5.20;99.90;;;;;;5074482;28;20051;-57
2023/04/13 04:45:57;;;;;;;3.53;2.28;;;5.30;99.90;;;;;;5093380;28;20078;-56
2023/04/13 04:48:26;;;;;;;4.53;2.13;;;5.20;99.90;;;;;;5092990;28;20036;-56
2023/04/13 04:50:54;;;;;;;5.97;2.60;;;5.10;99.90;;;;;;5075433;28;20096;-57
2023/04/13 04:53:21;;;;;;;7.43;2.20;;;;;;;;;;5098385;27;20122;-57
2023/04/13 04:55:47;;;;;;;6.25;2.70;;;;;;;;;;5095871;27;20066;-56
2023/04/13 04:58:13;;;;;;;6.38;2.50;;;;;;;;;;5095912;27;20117;-61
2023/04/13 05:00:39;;;;;;;5.45;2.65;;;;;;;;;;5098249;27;20051;-57
2023/04/13 05:03:07;;;;;;;7.95;2.88;;;;;;;;;;5096360;27;20040;-56
2023/04/13 05:05:33;;;;;;;7.97;3.20;;;;;;;;;;5094028;27;20040;-56
2023/04/13 05:07:59;;;;;;;5.45;3.03;;;;;;;;;;5095514;27;20047;-56
2023/04/13 05:10:28;;;;;;;9.65;4.13;;;;;;;;;;5095782;27;20522;-56
2023/04/13 05:12:55;;;;;;;6.72;3.80;;;;;;;;;;5075613;27;20047;-56
2023/04/13 05:15:21;;;;;;;7.22;3.85;;;;;;;;;;5095051;27;20044;-56
2023/04/13 05:17:49;;;;;;;9.90;4.25;;;5.20;99.90;;;;;;5095814;27;20058;-56
2023/04/13 05:20:18;;;;;;;6.38;4.13;;;;;;;;;;5095267;27;20131;-56
2023/04/13 05:22:44;;;;;;;9.93;4.32;;;;;;;;;;5078685;28;20447;-56
2023/04/13 05:25:12;;;;;;;8.32;4.07;;;;;;;;;;5094434;28;20323;-56
2023/04/13 05:27:38;;;;;;;7.43;4.57;;;;;;;;;;5077429;28;20043;-56
2023/04/13 05:30:04;;;;;;;8.80;5.28;;;5.30;99.90;;;;;;5078606;27;20113;-56
2023/04/13 05:32:33;;;;;;;7.57;4.60;;;5.50;99.90;;;;;;5096287;27;20934;-56
2023/04/13 05:34:59;;;;;;;7.93;4.43;;;6.20;99.90;;;;;;5096152;27;20040;-56
2023/04/13 05:37:25;;;;;;;7.43;4.05;;;6.80;99.90;;;;;;5096042;27;20276;-56
2023/04/13 05:39:52;;;;;;;7.90;3.80;;;7.30;99.90;;;;;;5095668;27;20152;-56
2023/04/13 05:42:18;;;;;;;6.32;2.80;;;7.40;99.90;;;;;;5095765;27;20051;-56
2023/04/13 05:44:45;;;;;;;6.55;2.80;;;7.80;99.90;;;;;;5078723;28;20054;-56
2023/04/13 05:47:11;;;;;;;6.80;2.13;;;8.30;99.90;;;;;;5077967;28;20476;-57
2023/04/13 05:49:36;;;;;;;8.35;2.45;;;8.70;99.90;;;;;;5094984;27;20064;-56
2023/04/13 05:52:02;;;;;;;5.57;2.70;;;9.10;99.90;;;;;;5096395;27;20503;-55
2023/04/13 05:54:28;;;;;;;5.78;2.20;;;9.30;99.90;;;;;;5094684;27;20032;-55
2023/04/13 05:56:55;;;;;;;7.28;1.98;;;9.10;99.90;;;;;;5094116;27;20036;-56
2023/04/13 05:59:21;;;;;;;6.63;2.40;;;8.80;99.90;;;;;;5095379;27;20043;-55
2023/04/13 06:01:48;;;;;;;7.07;2.38;;;8.50;99.90;;;;;;5095067;27;20039;-55
2023/04/13 06:04:17;;;;;;;5.20;1.90;;;8.40;99.90;;;;;;5095807;27;20058;-55
2023/04/13 06:06:44;;;;;;;8.43;2.15;;;8.00;99.90;;;;;;5095790;27;20137;-56
2023/04/13 06:09:09;;;;;;;6.63;1.92;;;7.40;99.90;;;;;;5094738;27;20055;-55
2023/04/13 06:11:35;;;;;;;7.90;2.03;;;7.30;99.90;;;;;;5094552;27;20036;-56
2023/04/13 06:14:01;;;;;;;9.23;2.30;;;7.00;99.90;;;;;;5094236;27;20743;-55
2023/04/13 06:16:27;;;;;;;7.18;2.05;;;6.80;99.90;;;;;;5095462;27;20043;-56
2023/04/13 06:18:54;;;;;;;7.28;1.90;;;6.70;99.90;;;;;;5105505;27;20044;-56
2023/04/13 06:21:20;;;;;;;7.05;2.28;;;6.70;99.90;;;;;;5070761;28;20035;-55
2023/04/13 06:23:46;;;;;;;8.40;2.13;;;6.70;99.90;;;;;;5093642;27;20066;-55
2023/04/13 06:26:12;;;;;;;7.43;2.72;;;6.60;99.90;;;;;;5094904;27;20299;-55
2023/04/13 06:28:38;;;;;;;6.63;1.88;;;6.80;99.90;;;;;;5095143;27;20399;-55
2023/04/13 06:31:05;;;;;;;5.75;1.90;;;;;;;;;;5096749;27;20042;-54
2023/04/13 06:33:30;;;;;;;7.47;1.70;;;6.70;99.90;;;;;;5093817;27;20086;-54
2023/04/13 06:35:56;;;;;;;7.85;2.40;;;6.50;99.90;;;;;;5093902;27;20111;-54
2023/04/13 06:38:22;;;;;;;6.93;3.03;;;6.70;99.90;;;;;;5095169;27;20043;-55
2023/04/13 06:40:48;;;;;;;7.03;2.13;;;6.60;99.90;;;;;;5075022;28;20051;-56
2023/04/13 06:43:13;;;;;;;5.35;2.65;;;6.90;99.90;;;;;;5093515;27;20039;-56
2023/04/13 06:45:39;;;;;;;5.57;2.40;;;6.70;99.90;;;;;;5094236;27;20044;-55
2023/04/13 06:48:05;;;;;;;12.32;3.40;;;7.20;99.90;;;;;;5095411;27;20032;-55
2023/04/13 06:50:31;;;;;;;7.93;3.08;;;7.20;99.90;;;;;;5093525;27;20040;-55
2023/04/13 06:52:57;;;;;;;8.85;2.53;;;7.70;99.90;;;;;;5094591;27;20511;-55
2023/04/13 06:55:23;;;;;;;7.45;3.00;;;7.20;99.90;;;;;;5094911;27;20609;-54
2023/04/13 06:57:48;;;;;;;7.20;2.85;;;9.00;99.90;;;;;;5094994;27;20050;-56
2023/04/13 07:00:14;;;;;;;7.55;2.55;;;10.00;99.90;;;;;;5095111;28;20043;-56
2023/04/13 07:02:41;;;;;;;8.95;2.38;;;9.90;99.90;;;;;;5094282;27;20661;-56
2023/04/13 07:05:07;;;;;;;7.10;2.40;;;10.90;99.90;;;;;;5094699;27;22245;-55
2023/04/13 07:07:33;;;;;;;6.82;2.38;;;11.60;99.90;;;;;;5094154;28;20035;-56
2023/04/13 07:09:59;;;;;;;5.18;1.90;;;12.50;99.90;;;;;;5093956;27;20176;-56
2023/04/13 07:12:25;;;;;;;7.63;2.35;;;12.00;99.90;;;;;;5092541;28;20051;-56
2023/04/13 07:14:50;;;;;;;4.82;1.98;;;11.30;99.90;;;;;;5092510;27;20583;-55
2023/04/13 07:17:17;;;;;;;8.85;2.60;;;10.50;99.90;;;;;;5074846;28;20050;-56
2023/04/13 07:19:46;;;;;;;6.88;2.30;;;9.90;99.90;;;;;;5092427;28;20504;-55
2023/04/13 07:22:12;;;;;;;7.68;2.20;;;9.20;99.90;;;;;;5092979;27;20455;-56
2023/04/13 07:24:39;;;;;;;8.63;2.17;;;9.60;99.90;;;;;;5092426;27;20119;-55
2023/04/13 07:27:04;;;;;;;6.70;2.03;;;9.90;99.90;;;;;;5093156;27;20047;-56
2023/04/13 07:29:30;;;;;;;8.50;2.08;;;10.60;99.90;;;;;;5093735;28;20119;-55
2023/04/13 07:32:01;;;;;;;9.85;1.90;;;11.50;99.90;;;;;;5075236;28;20067;-55
2023/04/13 07:34:27;;;;;;;7.05;1.92;;;12.20;99.90;;;;;;5091768;27;20039;-56
2023/04/13 07:36:53;;;;;;;5.43;1.70;;;12.50;99.90;;;;;;5092406;28;20126;-54
2023/04/13 07:39:19;;;;;;;9.88;2.30;;;12.80;99.90;;;;;;5075656;28;20136;-55
2023/04/13 07:41:46;;;;;;;6.45;1.80;;;13.00;99.90;;;;;;5075514;28;20078;-56
2023/04/13 07:44:13;;;;;;;9.52;1.75;;;12.70;99.90;;;;;;5092069;28;20652;-56
2023/04/13 07:46:39;;;;;;;5.68;1.58;;;12.00;99.90;;;;;;5090734;28;20071;-55
2023/04/13 07:49:05;;;;;;;6.07;1.70;;;10.90;99.90;;;;;;5092838;27;20039;-55
2023/04/13 07:51:33;;;;;;;7.10;1.67;;;10.80;99.90;;;;;;5093746;28;20115;-55
2023/04/13 07:53:59;;;;;;;7.18;1.70;;;11.60;99.90;;;;;;5094010;28;21192;-55
2023/04/13 07:56:25;;;;;;;6.82;1.63;;;11.90;99.90;;;;;;5074886;28;20047;-55
2023/04/13 07:58:51;;;;;;;8.02;2.08;;;11.70;99.90;;;;;;5094115;28;20054;-53
2023/04/13 08:01:17;;;;;;;9.07;1.67;;;11.20;99.90;;;;;;5094835;28;20578;-55
2023/04/13 08:03:43;;;;;;;5.13;1.60;;;10.80;99.90;;;;;;5076466;28;20120;-54
2023/04/13 08:06:10;;;;;;;9.55;1.80;;;10.50;99.90;;;;;;5093099;28;20051;-55
2023/04/13 08:08:36;;;;;;;8.60;1.70;;;10.20;99.90;;;;;;5095161;28;20060;-55
2023/04/13 08:11:01;;;;;;;6.20;1.73;;;11.00;99.90;;;;;;5093932;28;20051;-56
2023/04/13 08:13:28;;;;;;;5.88;1.90;;;11.40;99.90;;;;;;5094469;28;20035;-55
2023/04/13 08:15:56;;;;;;;6.53;1.85;;;11.20;99.90;;;;;;5076152;28;20142;-54
2023/04/13 08:18:30;;;;;;;7.35;1.35;;;10.90;99.90;;;;;;5096030;28;20043;-54
2023/04/13 08:20:56;;;;;;;7.00;1.40;;;10.90;99.90;;;;;;5093527;28;20051;-53
2023/04/13 08:23:22;;;;;;;6.03;1.45;;;11.10;99.90;;;;;;5092582;28;20039;-54
2023/04/13 08:25:48;;;;;;;5.50;1.30;;;11.50;99.90;;;;;;5096270;27;20516;-55
2023/04/13 08:28:14;;;;;;;7.78;1.70;;;11.60;99.90;;;;;;5097317;27;20058;-56
2023/04/13 08:30:41;;;;;;;10.40;2.80;;;10.70;99.90;;;;;;5098327;27;20065;-55
2023/04/13 08:33:07;;;;;;;6.55;1.95;;;10.30;99.90;;;;;;5095715;27;20040;-55
2023/04/13 08:35:35;;;;;;;7.72;1.60;;;9.90;99.90;;;;;;5096613;27;20050;-55
2023/04/13 08:38:06;;;;;;;8.23;2.13;;;10.00;99.90;;;;;;5096867;27;20559;-54
2023/04/13 08:40:39;;;;;;;10.38;2.08;;;9.30;99.90;;;;;;5097124;27;20063;-56
2023/04/13 08:43:06;;;;;;;6.00;1.92;;;9.10;99.90;;;;;;5096374;27;20070;-55
2023/04/13 08:45:33;;;;;;;5.97;0.90;;;8.80;99.90;;;;;;5096646;27;20040;-56
2023/04/13 08:48:00;;;;;;;4.15;1.00;;;8.70;99.90;;;;;;5076931;28;20056;-56
2023/04/13 08:50:27;;;;;;;8.55;1.83;;;8.90;99.90;;;;;;5094991;27;20184;-56
2023/04/13 08:52:54;;;;;;;5.35;1.20;;;8.70;99.90;;;;;;5095999;27;20086;-56
2023/04/13 08:55:20;;;;;;;8.20;1.50;;;8.90;99.90;;;;;;5095599;27;20039;-56
2023/04/13 08:57:48;;;;;;;6.70;1.25;;;9.00;99.90;;;;;;5077504;27;20050;-55
2023/04/13 09:00:16;;;;;;;5.95;1.45;;;9.00;99.90;;;;;;5096836;28;20619;-56
2023/04/13 09:02:57;;;;;;;4.00;1.30;;;9.00;99.90;;;;;;5097313;27;20036;-56
2023/04/13 09:05:25;;;;;;;5.72;0.88;;;9.20;99.90;;;;;;5095382;27;20110;-56
2023/04/13 09:07:52;;;;;;;6.78;0.90;;;9.40;99.90;;;;;;5096139;27;20040;-56
2023/04/13 09:10:44;;;;;;;6.82;1.15;;;9.40;99.90;;;;;;5078189;27;20423;-56
2023/04/13 09:13:10;;;;;;;6.63;1.55;;;9.40;99.90;;;;;;5095470;27;20047;-54
2023/04/13 09:15:36;;;;;;;4.70;1.10;;;11.10;99.90;;;;;;5097966;27;20052;-54
2023/04/13 09:18:06;;;;;;;6.40;1.60;;;9.00;99.90;;;;;;5095209;27;20043;-50
2023/04/13 09:20:32;;;;;;;6.93;1.10;;;8.90;99.90;;;;;;5094974;27;20031;-49
2023/04/13 09:22:58;;;;;;;6.90;1.17;;;8.80;99.90;;;;;;5095727;27;20047;-49
2023/04/13 09:25:28;;;;;;;6.32;1.15;;;7.80;99.90;;;;;;5094724;27;20520;-53
2023/04/13 09:27:55;;;;;;;4.93;1.00;;;8.10;99.90;;;;;;5095578;28;20430;-52
2023/04/13 09:30:23;;;;;;;4.05;1.23;;;7.60;99.90;;;;;;5098367;27;20215;-52
2023/04/13 09:33:05;;;;;;;4.63;0.90;;;7.60;99.90;;;;;;5097228;27;20507;-52
2023/04/13 09:35:32;;;;;;;5.03;0.70;;;7.50;99.90;;;;;;5077924;28;20107;-51
2023/04/13 09:38:01;;;;;;;3.17;0.50;;;7.60;99.90;;;;;;5096630;27;20117;-50
2023/04/13 09:40:28;;;;;;;1.27;0.50;;;7.60;99.90;;;;;;5096932;27;20134;-53
2023/04/13 09:42:56;;;;;;;0.95;0.38;;;7.90;99.90;;;;;;5096395;27;20043;-52
2023/04/13 09:45:22;;;;;;;1.58;0.20;;;7.70;99.90;;;;;;5097964;27;20475;-52
2023/04/13 09:47:48;;;;;;;3.08;0.30;;;9.40;99.90;;;;;;5096023;27;20112;-49
2023/04/13 09:50:21;;;;;;;1.98;0.50;;;7.70;99.90;;;;;;5095968;27;20508;-52
2023/04/13 09:52:57;;;;;;;1.17;0.40;;;7.50;99.90;;;;;;5094544;28;20061;-53
2023/04/13 09:55:23;;;;;;;0.50;0.20;;;7.40;99.90;;;;;;5095195;27;20048;-51
2023/04/13 09:57:48;;;;;;;1.83;0.50;;;8.90;99.90;;;;;;5096077;27;20456;-49
2023/04/13 10:00:19;;;;;;;4.95;0.60;;;7.40;99.90;;;;;;5098301;27;20070;-52
2023/04/13 10:02:48;;;;;;;1.85;0.32;;;7.60;99.90;;;;;;5097363;27;20040;-51
2023/04/13 10:05:14;;;;;;;0.80;0.30;;;7.60;99.90;;;;;;5096178;27;20495;-53
2023/04/13 10:07:43;;;;;;;2.75;0.40;;;7.80;99.90;;;;;;5095504;27;20055;-52
2023/04/13 10:10:09;;;;;;;0.30;0.20;;;8.30;99.90;;;;;;5094617;27;20071;-54
2023/04/13 10:12:50;;;;;;;3.20;0.55;;;8.50;99.90;;;;;;5094983;27;20135;-53
2023/04/13 10:15:43;;;;;;;3.58;0.45;;;9.20;99.90;;;;;;5094730;27;20127;-52
2023/04/13 10:18:41;;;;;;;1.08;0.47;;;9.50;99.90;;;;;;5076388;28;20043;-54
2023/04/13 10:21:08;;;;;;;2.25;0.45;;;9.70;99.90;;;;;;5095421;27;20046;-56
2023/04/13 10:23:37;;;;;;;3.70;1.13;;;9.70;99.90;;;;;;5058971;28;20128;-56
2023/04/13 10:26:05;;;;;;;3.35;0.70;;;10.00;99.90;;;;;;5093693;27;20114;-56
2023/04/13 10:28:44;;;;;;;5.47;0.90;;;10.00;99.90;;;;;;5094942;27;20764;-56
2023/04/13 10:31:10;;;;;;;2.22;0.95;;;8.70;99.90;;;;;;5077799;28;20502;-56
2023/04/13 10:33:49;;;;;;;3.58;0.75;;;10.30;99.90;;;;;;5093647;28;20040;-56
2023/04/13 10:36:15;;;;;;;4.88;0.80;;;10.70;99.90;;;;;;5077645;28;20407;-56
2023/04/13 10:38:45;;;;;;;3.63;0.95;;;10.50;99.90;;;;;;5076265;28;20071;-57
2023/04/13 10:41:27;;;;;;;3.42;0.70;;;11.80;99.90;;;;;;5094477;27;20459;-57
2023/04/13 10:44:04;;;;;;;3.90;0.90;;;10.50;99.90;;;;;;5094091;27;20393;-57
2023/04/13 10:46:32;;;;;;;4.53;1.27;;;10.50;99.90;;;;;;5093467;28;20477;-57
2023/04/13 10:48:59;;;;;;;5.65;0.93;;;10.70;99.90;;;;;;5094563;27;20039;-56
2023/04/13 10:51:45;;;;;;;7.00;1.52;;;10.80;99.90;;;;;;5093836;27;20204;-56
2023/04/13 10:54:12;;;;;;;6.25;1.10;;;10.40;99.90;;;;;;5094636;27;20077;-56
2023/04/13 10:56:39;;;;;;;5.70;1.10;;;12.10;99.90;;;;;;5095864;27;20535;-56
2023/04/13 10:59:05;;;;;;;6.00;1.10;;;10.00;99.90;;;;;;5094566;27;20438;-56
2023/04/13 11:01:31;;;;;;;4.93;0.82;;;9.50;99.90;;;;;;5096096;27;20777;-55
2023/04/13 11:04:03;;;;;;;4.38;0.80;;;9.20;99.90;;;;;;5092071;27;20512;-55
2023/04/13 11:06:37;;;;;;;3.58;0.75;;;9.00;99.90;;;;;;5094934;27;20154;-53
2023/04/13 11:09:10;;;;;;;3.42;0.82;;;8.80;99.90;;;;;;5093951;27;20503;-54
2023/04/13 11:11:36;;;;;;;7.10;1.70;;;8.70;99.90;;;;;;5094929;28;20050;-54
2023/04/13 11:14:02;;;;;;;8.60;1.63;;;8.90;99.90;;;;;;5094180;27;20769;-54
2023/04/13 11:16:28;;;;;;;6.43;1.33;;;9.10;99.90;;;;;;5094831;28;20039;-54
2023/04/13 11:19:04;;;;;;;9.57;1.65;;;9.40;99.90;;;;;;5093696;27;20044;-55
2023/04/13 11:21:31;;;;;;;10.13;2.28;;;9.40;99.90;;;;;;5076242;28;20492;-55
2023/04/13 11:24:00;;;;;;;11.38;1.83;;;9.60;99.90;;;;;;5094071;27;20067;-56
2023/04/13 11:26:36;;;;;;;15.88;2.10;;;9.60;99.90;;;;;;5092824;28;21803;-54
2023/04/13 11:29:03;;;;;;;10.90;1.80;;;9.90;99.90;;;;;;5093317;27;20525;-56
2023/04/13 11:31:37;;;;;;;10.88;2.05;;;9.90;99.90;;;;;;5093506;28;20031;-56
2023/04/13 11:34:04;;;;;;;13.70;2.35;;;9.80;99.90;;;;;;5092949;27;20035;-56
2023/04/13 11:36:31;;;;;;;13.23;2.47;;;9.90;99.90;;;;;;5075230;28;20333;-55
2023/04/13 11:38:59;;;;;;;13.27;2.88;;;9.90;99.90;;;;;;5093601;28;20472;-56
2023/04/13 11:41:27;;;;;;;15.68;2.50;;;11.70;99.90;;;;;;5093815;27;20529;-56
2023/04/13 11:43:53;;;;;;;12.30;2.30;;;10.30;99.90;;;;;;5093841;28;20055;-57
2023/04/13 11:46:25;;;;;;;14.60;2.35;;;10.30;99.90;;;;;;5092638;28;20110;-56
2023/04/13 11:48:54;;;;;;;17.08;2.20;;;10.10;99.90;;;;;;5093762;27;20038;-57
2023/04/13 11:51:21;;;;;;;12.15;2.40;;;10.10;99.90;;;;;;5092712;28;20059;-57
2023/04/13 11:53:50;;;;;;;14.13;2.45;;;10.40;99.90;;;;;;5074666;28;20336;-57
2023/04/13 11:56:17;;;;;;;13.25;2.22;;;10.40;99.90;;;;;;5093667;28;20047;-56
2023/04/13 11:58:42;;;;;;;12.27;2.10;;;10.30;99.90;;;;;;5093373;28;20092;-56
2023/04/13 12:01:09;;;;;;;14.60;2.20;;;10.30;99.90;;;;;;5094230;28;20048;-57
2023/04/13 12:03:39;;;;;;;18.13;2.78;;;10.20;99.90;;;;;;5076128;28;20131;-56
2023/04/13 12:06:06;;;;;;;12.07;2.05;;;10.10;99.90;;;;;;5093063;28;20042;-56
2023/04/13 12:08:32;;;;;;;14.23;2.13;;;10.30;99.90;;;;;;5092470;28;20035;-56
2023/04/13 12:11:05;;;;;;;10.85;2.47;;;10.00;99.90;;;;;;5092968;28;20128;-56
2023/04/13 12:13:39;;;;;;;9.98;2.38;;;10.10;99.90;;;;;;5093089;28;20415;-55
2023/04/13 12:16:05;;;;;;;13.07;2.58;;;10.10;99.90;;;;;;5092913;28;20047;-55
2023/04/13 12:18:38;;;;;;;9.95;2.25;;;10.10;99.90;;;;;;5092510;28;20044;-55
2023/04/13 12:21:04;;;;;;;11.40;2.10;;;10.10;99.90;;;;;;5092902;28;20051;-55
2023/04/13 12:23:29;;;;;;;13.32;2.72;;;10.20;99.90;;;;;;5074125;28;20035;-55
2023/04/13 12:25:56;;;;;;;12.30;2.17;;;10.10;99.90;;;;;;5092220;28;20525;-55
2023/04/13 12:28:28;;;;;;;12.18;2.53;;;10.40;99.90;;;;;;5093751;28;20131;-55
2023/04/13 12:30:53;;;;;;;11.25;1.63;;;10.30;99.90;;;;;;5075085;28;20384;-55
2023/04/13 12:33:20;;;;;;;11.15;1.85;;;10.40;99.90;;;;;;5070031;28;20107;-55
2023/04/13 12:35:45;;;;;;;11.43;2.50;;;10.30;99.90;;;;;;5093341;28;20048;-55
2023/04/13 12:38:11;;;;;;;14.23;2.10;;;10.20;99.90;;;;;;5094803;28;20046;-54
2023/04/13 12:40:37;;;;;;;12.70;2.10;;;12.10;99.90;;;;;;5095083;28;20728;-56
2023/04/13 12:43:03;;;;;;;12.43;2.50;;;10.00;99.90;;;;;;5075336;28;20455;-56
2023/04/13 12:45:29;;;;;;;9.43;3.00;;;9.90;99.90;;;;;;5093867;28;20120;-55
2023/04/13 12:47:55;;;;;;;15.18;2.42;;;9.80;99.90;;;;;;5093258;28;21973;-55
2023/04/13 12:50:21;;;;;;;12.38;2.58;;;9.90;99.90;;;;;;5093553;28;20138;-56
2023/04/13 12:52:48;;;;;;;15.32;2.30;;;10.80;99.90;;;;;;5092714;28;20044;-56
2023/04/13 12:55:14;;;;;;;13.63;2.50;;;9.80;99.90;;;;;;5057965;28;20054;-55
2023/04/13 12:58:15;;;;;;;11.50;2.28;;;9.90;99.90;;;;;;5099656;28;20052;-55
2023/04/13 13:00:41;;;;;;;11.23;1.88;;;9.70;99.90;;;;;;5066343;28;20150;-55
2023/04/13 13:03:09;;;;;;;15.13;2.85;;;9.90;99.90;;;;;;5094449;28;20043;-55
2023/04/13 13:05:35;;;;;;;11.73;2.20;;;10.00;99.90;;;;;;5092162;28;20048;-55
2023/04/13 13:08:00;;;;;;;11.25;2.47;;;10.00;99.90;;;;;;5092601;28;20040;-53
2023/04/13 13:10:26;;;;;;;12.80;2.90;;;9.90;99.90;;;;;;5091243;28;20382;-55
2023/04/13 13:12:52;;;;;;;13.30;2.00;;;10.00;99.90;;;;;;5095814;27;20043;-55
2023/04/13 13:15:18;;;;;;;11.43;2.88;;;9.70;99.90;;;;;;5077685;28;20416;-55
2023/04/13 13:17:44;;;;;;;10.13;2.15;;;9.70;99.90;;;;;;5077784;27;20037;-54
2023/04/13 13:20:11;;;;;;;12.05;1.85;;;9.60;99.90;;;;;;5076460;27;20441;-55